createdAt,value
2022-12-09T00:03:23.050Z,76.08
2022-12-09T00:08:24.642Z,75.98
2022-12-09T00:13:30.317Z,75.63
2022-12-09T00:18:36.646Z,76.04
2022-12-09T00:23:42.909Z,76.24
2022-12-09T00:28:49.948Z,76.29
2022-12-09T00:33:58.408Z,76.79
2022-12-09T00:39:04.214Z,76.64
2022-12-09T00:44:10.931Z,77.04
2022-12-09T00:49:16.319Z,76.59
2022-12-09T00:54:22.117Z,76.85
2022-12-09T00:59:28.588Z,77.39
2022-12-09T01:04:34.733Z,76.75
2022-12-09T01:09:40.373Z,76.72
2022-12-09T01:14:45.745Z,76.76
2022-12-09T01:19:51.225Z,76.68
2022-12-09T01:24:56.739Z,77.19
2022-12-09T01:30:02.220Z,76.90
2022-12-09T01:35:08.793Z,77.37
2022-12-09T01:40:17.650Z,76.72
2022-12-09T01:45:29.238Z,76.95
2022-12-09T01:50:37.832Z,77.38
2022-12-09T01:55:43.830Z,77.13
2022-12-09T02:00:49.565Z,77.15
2022-12-09T02:05:57.297Z,76.82
2022-12-09T02:11:11.965Z,76.87
2022-12-09T02:16:22.570Z,76.78
2022-12-09T02:21:31.712Z,76.52
2022-12-09T02:26:44.635Z,76.47
2022-12-09T02:32:12.330Z,76.34
2022-12-09T02:37:27.002Z,76.10
2022-12-09T02:42:35.888Z,75.92
2022-12-09T02:47:45.047Z,75.81
2022-12-09T02:52:54.554Z,75.46
2022-12-09T02:58:02.325Z,75.50
2022-12-09T03:03:12.440Z,74.98
2022-12-09T03:08:49.966Z,74.88
2022-12-09T03:14:03.041Z,74.86
2022-12-09T03:19:18.050Z,74.59
2022-12-09T03:24:29.178Z,74.16
2022-12-09T03:29:37.600Z,74.01
2022-12-09T03:34:46.025Z,74.18
2022-12-09T03:39:53.101Z,73.68
2022-12-09T03:45:01.628Z,74.05
2022-12-09T03:50:10.640Z,73.99
2022-12-09T03:55:36.896Z,73.81
2022-12-09T04:00:43.633Z,73.52
2022-12-09T04:05:49.262Z,73.12
2022-12-09T04:10:54.729Z,72.76
2022-12-09T04:16:01.268Z,72.69
2022-12-09T04:21:09.785Z,72.82
2022-12-09T04:26:17.965Z,72.91
2022-12-09T04:31:23.662Z,72.96
2022-12-09T04:36:29.556Z,72.67
2022-12-09T04:41:35.358Z,72.57
2022-12-09T04:46:41.247Z,72.43
2022-12-09T04:51:47.048Z,72.15
2022-12-09T04:56:52.706Z,71.91
2022-12-09T05:01:58.694Z,71.94
2022-12-09T05:07:04.828Z,72.02
2022-12-09T05:12:10.534Z,71.88
2022-12-09T05:17:16.174Z,72.26
2022-12-09T05:22:22.415Z,72.78
2022-12-09T05:27:28.274Z,72.69
2022-12-09T05:32:34.268Z,73.13
2022-12-09T05:37:40.118Z,73.29
2022-12-09T05:42:45.731Z,73.34
2022-12-09T05:47:51.339Z,73.26
2022-12-09T05:52:56.950Z,73.37
2022-12-09T05:58:02.927Z,73.47
2022-12-09T06:03:08.786Z,73.17
2022-12-09T06:08:14.776Z,73.24
2022-12-09T06:13:20.504Z,73.54
2022-12-09T06:18:26.126Z,73.54
2022-12-09T06:23:32.163Z,73.55
2022-12-09T06:28:37.797Z,73.34
2022-12-09T06:33:59.993Z,73.57
2022-12-09T06:38:50.908Z,73.45
2022-12-09T06:43:58.983Z,73.33
2022-12-09T06:49:05.484Z,73.50
2022-12-09T06:54:11.160Z,73.48
2022-12-09T06:59:16.829Z,73.18
2022-12-09T07:04:23.213Z,73.37
2022-12-09T07:09:30.222Z,73.26
2022-12-09T07:14:36.985Z,72.99
2022-12-09T07:19:42.724Z,73.03
2022-12-09T07:24:48.755Z,73.04
2022-12-09T07:29:54.875Z,72.90
2022-12-09T07:35:00.770Z,72.93
2022-12-09T07:40:08.139Z,72.78
2022-12-09T07:45:14.642Z,72.77
2022-12-09T07:50:20.446Z,72.48
2022-12-09T07:55:26.270Z,72.34
2022-12-09T08:00:32.155Z,72.33
2022-12-09T08:05:37.829Z,72.16
2022-12-09T08:10:44.786Z,72.10
2022-12-09T08:15:50.585Z,71.05
2022-12-09T08:20:56.185Z,71.50
2022-12-09T08:26:01.916Z,71.57
2022-12-09T08:31:19.575Z,71.57
2022-12-09T08:36:28.399Z,71.24
2022-12-09T08:41:38.102Z,71.40
2022-12-09T08:46:46.599Z,71.64
2022-12-09T08:51:54.739Z,71.59
2022-12-09T08:57:00.573Z,71.12
2022-12-09T09:02:06.735Z,70.69
2022-12-09T09:07:13.359Z,70.69
2022-12-09T09:12:19.605Z,70.61
2022-12-09T09:17:25.703Z,69.98
2022-12-09T09:22:31.967Z,69.98
2022-12-09T09:27:39.679Z,69.70
2022-12-09T09:32:45.427Z,69.75
2022-12-09T09:37:51.950Z,69.46
2022-12-09T09:43:00.011Z,69.12
2022-12-09T09:48:07.475Z,69.37
2022-12-09T09:53:16.218Z,68.96
2022-12-09T09:58:31.050Z,68.69
2022-12-09T10:03:44.332Z,68.18
2022-12-09T10:08:58.292Z,68.18
2022-12-09T10:14:16.323Z,67.86
2022-12-09T10:19:28.371Z,67.74
2022-12-09T10:24:40.387Z,67.82
2022-12-09T10:30:03.812Z,67.46
2022-12-09T10:35:18.836Z,67.08
2022-12-09T10:40:50.532Z,67.08
2022-12-09T10:51:24.885Z,66.70
2022-12-09T10:56:34.070Z,66.30
2022-12-09T11:01:51.788Z,66.07
2022-12-09T11:07:15.768Z,66.00
2022-12-09T11:12:36.690Z,66.23
2022-12-09T11:17:40.733Z,66.06
2022-12-09T11:22:47.543Z,66.06
2022-12-09T11:27:59.088Z,65.36
2022-12-09T11:33:08.128Z,65.49
2022-12-09T11:38:29.289Z,65.56
2022-12-09T11:43:47.159Z,65.26
2022-12-09T11:49:01.489Z,65.27
2022-12-09T11:54:18.969Z,65.27
2022-12-09T11:59:27.556Z,65.61
2022-12-09T12:04:36.054Z,65.61
2022-12-09T12:09:50.266Z,65.48
2022-12-09T12:14:58.697Z,65.07
2022-12-09T12:20:06.311Z,64.24
2022-12-09T12:25:34.465Z,64.29
2022-12-09T12:30:59.298Z,64.10
2022-12-09T12:36:10.702Z,63.66
2022-12-09T12:41:19.126Z,63.74
2022-12-09T12:46:45.368Z,63.34
2022-12-09T12:52:26.420Z,63.24
2022-12-09T12:57:24.642Z,63.00
2022-12-09T13:02:48.290Z,63.00
2022-12-09T13:08:00.295Z,63.36
2022-12-09T13:13:07.952Z,63.04
2022-12-09T13:18:16.389Z,62.72
2022-12-09T13:23:48.990Z,62.52
2022-12-09T13:29:27.393Z,62.64
2022-12-09T13:34:41.822Z,62.29
2022-12-09T13:39:53.082Z,62.29
2022-12-09T13:45:01.581Z,62.72
2022-12-09T13:50:11.075Z,62.34
2022-12-09T13:55:22.803Z,62.42
2022-12-09T14:00:28.865Z,62.03
2022-12-09T14:05:37.374Z,62.01
2022-12-09T14:10:46.561Z,62.01
2022-12-09T14:16:11.668Z,62.68
2022-12-09T14:21:23.012Z,62.68
2022-12-09T14:26:46.394Z,62.69
2022-12-09T14:31:58.038Z,61.70
2022-12-09T14:37:09.203Z,62.25
2022-12-09T14:42:34.425Z,62.68
2022-12-09T14:47:42.892Z,63.08
2022-12-09T14:52:57.698Z,63.08
2022-12-09T14:58:03.823Z,63.16
2022-12-09T15:03:44.873Z,62.90
2022-12-09T15:08:36.087Z,63.43
2022-12-09T15:13:45.118Z,63.56
2022-12-09T15:18:52.646Z,63.71
2022-12-09T15:24:00.365Z,62.49
2022-12-09T15:29:06.648Z,62.84
2022-12-09T15:34:15.060Z,63.29
2022-12-09T15:39:26.360Z,63.86
2022-12-09T15:44:35.288Z,64.26
2022-12-09T15:49:52.890Z,64.49
2022-12-09T15:55:00.918Z,64.66
2022-12-09T16:00:07.723Z,65.02
2022-12-09T16:05:13.850Z,65.36
2022-12-09T16:10:19.766Z,65.57
2022-12-09T16:15:28.311Z,65.38
2022-12-09T16:20:40.144Z,65.80
2022-12-09T16:25:47.334Z,65.85
2022-12-09T16:30:55.901Z,65.73
2022-12-09T16:36:07.338Z,65.98
2022-12-09T16:41:13.639Z,66.23
2022-12-09T16:46:27.684Z,66.38
2022-12-09T16:51:33.604Z,66.23
2022-12-09T16:56:39.079Z,66.15
2022-12-09T17:01:44.752Z,66.49
2022-12-09T17:06:50.529Z,66.50
2022-12-09T17:11:55.903Z,66.56
2022-12-09T17:17:02.839Z,66.15
2022-12-09T17:22:10.604Z,65.53
2022-12-09T17:27:16.270Z,65.48
2022-12-09T17:32:21.833Z,65.40
2022-12-09T17:37:27.414Z,65.13
2022-12-09T17:42:32.919Z,64.60
2022-12-09T17:47:38.631Z,64.37
2022-12-09T17:52:44.156Z,64.34
2022-12-09T17:57:54.065Z,63.94
2022-12-09T18:02:56.616Z,63.72
2022-12-09T18:08:02.029Z,63.56
2022-12-09T18:13:07.549Z,63.50
2022-12-09T18:18:13.097Z,63.30
2022-12-09T18:23:18.631Z,63.38
2022-12-09T18:28:26.295Z,63.13
2022-12-09T18:33:31.958Z,63.30
2022-12-09T18:38:37.994Z,63.04
2022-12-09T18:43:45.227Z,63.08
2022-12-09T18:48:52.186Z,63.09
2022-12-09T18:54:01.915Z,63.10
2022-12-09T18:59:08.939Z,62.99
2022-12-09T19:04:17.526Z,63.01
2022-12-09T19:09:34.837Z,62.77
2022-12-09T19:14:41.094Z,62.29
2022-12-09T19:19:47.545Z,62.60
2022-12-09T19:24:53.016Z,62.52
2022-12-09T19:29:58.388Z,61.84
2022-12-09T19:35:04.321Z,62.50
2022-12-09T19:40:11.217Z,62.42
2022-12-09T19:45:16.672Z,61.66
2022-12-09T19:50:22.841Z,62.07
2022-12-09T19:55:28.303Z,62.28
2022-12-09T20:00:39.740Z,62.06
2022-12-09T20:05:43.972Z,61.94
2022-12-09T20:10:49.998Z,61.72
2022-12-09T20:15:55.496Z,61.54
2022-12-09T20:21:06.120Z,61.56
2022-12-09T20:26:17.391Z,61.05
2022-12-09T20:31:28.780Z,61.07
2022-12-09T20:36:36.615Z,60.89
2022-12-09T20:41:42.815Z,60.97
2022-12-09T20:46:50.852Z,60.79
2022-12-09T20:51:56.715Z,60.59
2022-12-09T20:57:02.110Z,60.13
2022-12-09T21:02:13.444Z,60.34
2022-12-09T21:07:14.918Z,60.24
2022-12-09T21:12:20.441Z,60.15
2022-12-09T21:17:27.031Z,59.97
2022-12-09T21:22:33.493Z,59.81
2022-12-09T21:27:40.865Z,59.87
2022-12-09T21:32:46.713Z,59.72
2022-12-09T21:37:56.095Z,59.56
2022-12-09T21:42:59.267Z,59.48
2022-12-09T21:48:04.787Z,59.36
2022-12-09T21:53:10.308Z,59.48
2022-12-09T21:58:15.853Z,59.52
2022-12-09T22:03:21.259Z,59.23
2022-12-09T22:08:26.713Z,59.05
2022-12-09T22:13:37.732Z,59.19
2022-12-09T22:18:39.613Z,59.27
2022-12-09T22:23:45.820Z,59.36
2022-12-09T22:28:51.335Z,59.02
2022-12-09T22:34:03.625Z,58.59
2022-12-09T22:39:11.446Z,59.21
2022-12-09T22:44:18.873Z,59.17
2022-12-09T22:49:24.268Z,59.36
2022-12-09T22:54:29.712Z,59.34
2022-12-09T22:59:41.391Z,59.29
2022-12-09T23:04:42.440Z,59.31
2022-12-09T23:09:47.805Z,59.33
2022-12-09T23:14:53.187Z,59.55
2022-12-09T23:19:58.567Z,59.41
2022-12-09T23:25:04.556Z,59.43
2022-12-09T23:30:11.121Z,59.36
2022-12-09T23:35:16.827Z,59.33
2022-12-09T23:40:22.289Z,59.41
2022-12-09T23:45:27.831Z,58.87
2022-12-09T23:50:33.282Z,59.18
2022-12-09T23:55:43.352Z,59.07
